Time;durP1;ratioP1;P1;durP2;ratioP2;P2;SDS_P1;SDS_P2;PMS_P1;PMS_P2;Temp;Humidity;BMP_temperature;BMP_pressure;BME280_temperature;BME280_humidity;BME280_pressure;Samples;Min_cycle;Max_cycle;Signal;HPM_P1;HPM_P2
2022/08/14 00:01:21;;;;;;;;;;;;;;;20.56;64.38;99686.19;5057538;28;20382;-80
2022/08/14 00:03:47;;;;;;;;;;;;;;;20.57;65.39;99684.94;5057983;28;20013;-79
2022/08/14 00:06:12;;;;;;;;;;;;;;;20.62;63.21;99681.56;5057330;28;19916;-80
2022/08/14 00:08:37;;;;;;;;;;;;;;;20.59;62.62;99676.00;5057474;28;20328;-80
2022/08/14 00:11:03;;;;;;;;;;;;;;;20.61;62.25;99684.81;5057388;28;19917;-80
2022/08/14 00:13:28;;;;;;;;;;;;;;;20.55;62.80;99683.78;5057860;28;19916;-80
2022/08/14 00:15:55;;;;;;;;;;;;;;;20.51;62.37;99674.63;5057364;28;19966;-80
2022/08/14 00:18:22;;;;;;;;;;;;;;;20.50;63.79;99684.31;5057819;28;19924;-80
2022/08/14 00:20:50;;;;;;;;;;;;;;;20.53;64.47;99684.22;5057310;28;20190;-80
2022/08/14 00:23:16;;;;;;;;;;;;;;;20.55;63.93;99687.38;5057142;28;20454;-80
2022/08/14 00:25:43;;;;;;;;;;;;;;;20.45;64.22;99682.78;5057076;28;20006;-80
2022/08/14 00:28:12;;;;;;;;;;;;;;;20.45;64.68;99681.97;5057532;28;20019;-80
2022/08/14 00:30:38;;;;;;;;;;;;;;;20.41;64.59;99665.94;5057850;28;19921;-80
2022/08/14 00:33:03;;;;;;;;;;;;;;;20.46;64.19;99673.13;5057007;28;19939;-80
2022/08/14 00:35:29;;;;;;;;;;;;;;;20.42;63.82;99667.50;5074583;28;19917;-80
2022/08/14 00:37:55;;;;;;;;;;;;;;;20.38;64.43;99669.63;5056858;28;19916;-80
2022/08/14 00:40:20;;;;;;;;;;;;;;;20.36;64.17;99669.28;5056820;28;19916;-80
2022/08/14 00:42:46;;;;;;;;;;;;;;;20.43;64.46;99668.31;5056456;28;19924;-80
2022/08/14 00:45:12;;;;;;;;;;;;;;;20.46;64.92;99670.28;5056718;28;19916;-80
2022/08/14 00:47:38;;;;;;;;;;;;;;;20.48;64.31;99673.47;5074933;28;19944;-80
2022/08/14 00:50:06;;;;;;;;;;;;;;;20.46;63.37;99673.13;5056984;28;20343;-80
2022/08/14 00:52:32;;;;;;;;;;;;;;;20.44;63.21;99667.06;5074451;28;19974;-80
2022/08/14 00:54:58;;;;;;;;;;;;;;;20.42;63.73;99663.91;5056538;28;20375;-80
2022/08/14 00:57:24;;;;;;;;;;;;;;;20.45;64.17;99667.84;5056235;28;19927;-80
2022/08/14 00:59:50;;;;;;;;;;;;;;;20.47;64.27;99665.44;5073130;28;19951;-79
2022/08/14 01:02:17;;;;;;;;;;;;;;;20.47;65.20;99663.41;5057047;28;19916;-80
2022/08/14 01:04:43;;;;;;;;;;;;;;;20.48;64.78;99661.34;5056411;28;20019;-80
2022/08/14 01:07:09;;;;;;;;;;;;;;;20.48;64.94;99655.72;5057107;28;20022;-80
2022/08/14 01:09:35;;;;;;;;;;;;;;;20.54;65.69;99656.75;5056275;28;20379;-79
2022/08/14 01:12:01;;;;;;;;;;;;;;;20.57;65.17;99667.19;5056727;28;20029;-80
2022/08/14 01:14:27;;;;;;;;;;;;;;;20.62;65.18;99663.81;5056220;28;20074;-80
2022/08/14 01:16:52;;;;;;;;;;;;;;;20.63;64.59;99663.38;5055308;28;19923;-79
2022/08/14 01:22:02;;;;;;;;;;;;;;;20.67;64.95;99658.44;5074422;28;20377;-80
2022/08/14 01:24:27;;;;;;;;;;;;;;;20.68;64.39;99653.56;5072749;28;20010;-80
2022/08/14 01:26:53;;;;;;;;;;;;;;;20.67;65.12;99660.47;5073900;28;19921;-80
2022/08/14 01:29:19;;;;;;;;;;;;;;;20.76;65.19;99652.13;5056885;28;19924;-80
2022/08/14 01:31:45;;;;;;;;;;;;;;;20.78;64.87;99646.81;5074025;28;19923;-80
2022/08/14 01:34:12;;;;;;;;;;;;;;;20.76;65.19;99649.28;5073902;28;19946;-80
2022/08/14 01:36:37;;;;;;;;;;;;;;;20.78;65.13;99646.81;5073948;28;19964;-80
2022/08/14 01:39:14;;;;;;;;;;;;;;;20.78;64.80;99641.19;5073895;28;20413;-80
2022/08/14 01:41:40;;;;;;;;;;;;;;;20.80;65.47;99647.16;5056216;28;19954;-80
2022/08/14 01:44:11;;;;;;;;;;;;;;;20.77;65.69;99628.25;5056060;28;19920;-80
2022/08/14 01:46:38;;;;;;;;;;;;;;;20.76;66.05;99625.88;5074578;28;19916;-80
2022/08/14 01:49:19;;;;;;;;;;;;;;;20.72;66.76;99620.34;5074447;28;19950;-80
2022/08/14 01:51:47;;;;;;;;;;;;;;;20.69;66.87;99621.22;5056347;28;19939;-80
2022/08/14 01:54:13;;;;;;;;;;;;;;;20.67;67.42;99618.84;5074085;28;20329;-80
2022/08/14 01:56:39;;;;;;;;;;;;;;;20.71;67.51;99627.22;5074242;28;20007;-80
2022/08/14 01:59:06;;;;;;;;;;;;;;;20.73;68.02;99607.00;5055175;28;19960;-79
2022/08/14 02:01:33;;;;;;;;;;;;;;;20.75;67.76;99610.16;5055623;28;19917;-80
2022/08/14 02:03:59;;;;;;;;;;;;;;;20.84;66.91;99611.13;5055717;28;19928;-80
2022/08/14 02:06:25;;;;;;;;;;;;;;;20.85;66.79;99604.22;5055850;28;19920;-79
2022/08/14 02:08:53;;;;;;;;;;;;;;;20.88;66.77;99600.50;5073788;28;19923;-80
2022/08/14 02:11:21;;;;;;;;;;;;;;;20.91;67.09;99605.25;5055824;28;19917;-80
2022/08/14 02:13:55;;;;;;;;;;;;;;;20.90;67.58;99598.00;5055905;28;19923;-80
2022/08/14 02:16:24;;;;;;;;;;;;;;;20.92;67.96;99603.22;5055516;28;19916;-80
2022/08/14 02:18:51;;;;;;;;;;;;;;;20.95;67.49;99605.16;5073229;28;20332;-79
2022/08/14 02:21:17;;;;;;;;;;;;;;;20.96;68.09;99605.94;5056073;28;19917;-80
2022/08/14 02:23:45;;;;;;;;;;;;;;;21.00;68.39;99601.00;5073413;28;19916;-80
2022/08/14 02:26:15;;;;;;;;;;;;;;;20.97;68.98;99596.22;5055946;28;20279;-80
2022/08/14 02:28:41;;;;;;;;;;;;;;;20.95;69.33;99593.84;5057422;28;20367;-79
2022/08/14 02:31:07;;;;;;;;;;;;;;;20.93;69.16;99599.13;5059556;28;19932;-80
2022/08/14 02:33:34;;;;;;;;;;;;;;;20.90;69.59;99603.66;5059224;28;19916;-80
2022/08/14 02:35:59;;;;;;;;;;;;;;;20.89;69.98;99601.28;5059190;28;19943;-80
2022/08/14 02:38:25;;;;;;;;;;;;;;;20.86;70.10;99597.31;5059381;28;19921;-80
2022/08/14 02:40:50;;;;;;;;;;;;;;;20.89;69.38;99589.97;5059040;28;19917;-80
2022/08/14 02:43:16;;;;;;;;;;;;;;;20.89;69.70;99596.44;5059315;28;19916;-80
2022/08/14 02:45:41;;;;;;;;;;;;;;;20.88;69.55;99594.84;5059548;28;20326;-80
2022/08/14 02:48:08;;;;;;;;;;;;;;;20.98;68.89;99609.09;5076955;28;20375;-80
2022/08/14 02:50:36;;;;;;;;;;;;;;;20.84;68.62;99611.13;5058910;28;19917;-80
2022/08/14 02:53:01;;;;;;;;;;;;;;;20.79;68.79;99608.84;5059100;28;19987;-80
2022/08/14 02:55:31;;;;;;;;;;;;;;;20.79;68.69;99611.66;5058784;28;20023;-80
2022/08/14 02:57:56;;;;;;;;;;;;;;;20.77;68.26;99596.38;5055396;28;19924;-80
2022/08/14 03:00:22;;;;;;;;;;;;;;;20.74;68.28;99589.59;5055435;28;19939;-80
2022/08/14 03:02:49;;;;;;;;;;;;;;;20.76;68.00;99587.09;5055036;28;19927;-80
2022/08/14 03:05:16;;;;;;;;;;;;;;;20.79;68.80;99591.88;5055303;28;19923;-80
2022/08/14 03:07:42;;;;;;;;;;;;;;;20.79;69.80;99580.56;5055319;28;19921;-80
2022/08/14 03:10:09;;;;;;;;;;;;;;;20.74;69.74;99589.59;5055495;28;19951;-80
2022/08/14 03:12:35;;;;;;;;;;;;;;;20.77;69.74;99583.03;5056413;28;20372;-80
2022/08/14 03:15:19;;;;;;;;;;;;;;;20.77;69.64;99576.56;5055395;28;19917;-80
2022/08/14 03:17:44;;;;;;;;;;;;;;;20.79;68.85;99571.28;5055084;28;19921;-80
2022/08/14 03:20:10;;;;;;;;;;;;;;;20.70;70.03;99571.94;5055033;28;19924;-80
2022/08/14 03:22:36;;;;;;;;;;;;;;;20.67;70.40;99581.31;5056848;28;20007;-80
2022/08/14 03:25:01;;;;;;;;;;;;;;;20.68;70.72;99577.25;5056206;28;20318;-80
2022/08/14 03:27:30;;;;;;;;;;;;;;;20.63;70.52;99581.41;5054800;28;19928;-79
2022/08/14 03:29:55;;;;;;;;;;;;;;;20.62;70.86;99579.81;5054806;28;19917;-80
2022/08/14 03:32:20;;;;;;;;;;;;;;;20.63;71.20;99583.44;5054823;28;19917;-80
2022/08/14 03:34:46;;;;;;;;;;;;;;;20.63;70.58;99584.22;5054708;28;19917;-81
2022/08/14 03:37:11;;;;;;;;;;;;;;;20.62;70.85;99593.97;5054738;28;19917;-81
2022/08/14 03:39:39;;;;;;;;;;;;;;;20.58;71.08;99583.97;5053633;28;20006;-81
2022/08/14 03:42:05;;;;;;;;;;;;;;;20.54;71.00;99577.63;5054602;28;19917;-80
2022/08/14 03:44:34;;;;;;;;;;;;;;;20.58;70.78;99575.50;5055157;28;19923;-80
2022/08/14 03:47:02;;;;;;;;;;;;;;;20.61;69.78;99578.25;5054406;28;19916;-80
2022/08/14 03:49:28;;;;;;;;;;;;;;;20.55;69.52;99582.03;5054488;28;19928;-80
2022/08/14 03:51:53;;;;;;;;;;;;;;;20.52;69.73;99582.94;5054482;28;19917;-81
2022/08/14 03:54:19;;;;;;;;;;;;;;;20.56;69.78;99578.78;5054973;28;19923;-81
2022/08/14 03:56:44;;;;;;;;;;;;;;;20.49;71.41;99575.34;5054368;28;20271;-81
2022/08/14 03:59:12;;;;;;;;;;;;;;;20.44;71.71;99584.34;5053930;28;19974;-80
2022/08/14 04:01:38;;;;;;;;;;;;;;;20.41;71.96;99578.34;5054574;28;20322;-80
2022/08/14 04:04:05;;;;;;;;;;;;;;;20.42;71.83;99584.78;5054496;28;19962;-80
2022/08/14 04:06:34;;;;;;;;;;;;;;;20.44;72.08;99581.50;5054395;28;19939;-80
2022/08/14 04:08:59;;;;;;;;;;;;;;;20.41;71.44;99586.81;5055684;28;19939;-80
2022/08/14 04:11:25;;;;;;;;;;;;;;;20.40;72.15;99582.41;5054392;28;20352;-81
2022/08/14 04:13:50;;;;;;;;;;;;;;;20.38;72.78;99587.69;5054643;28;20364;-80
2022/08/14 04:16:19;;;;;;;;;;;;;;;20.36;73.01;99587.34;5054431;28;19971;-81
2022/08/14 04:18:45;;;;;;;;;;;;;;;20.36;73.22;99580.91;5054249;28;19940;-81
2022/08/14 04:21:11;;;;;;;;;;;;;;;20.41;72.75;99577.56;5054044;28;19921;-81
2022/08/14 04:23:37;;;;;;;;;;;;;;;20.49;72.84;99578.16;5053820;28;19970;-80
2022/08/14 04:26:04;;;;;;;;;;;;;;;20.48;71.56;99577.38;5054403;28;20011;-80
2022/08/14 04:28:30;;;;;;;;;;;;;;;20.37;72.77;99576.84;5053915;28;19921;-80
2022/08/14 04:30:57;;;;;;;;;;;;;;;20.34;72.79;99586.19;5054952;28;20383;-80
2022/08/14 04:33:23;;;;;;;;;;;;;;;20.29;72.02;99575.44;5053946;28;19924;-80
2022/08/14 04:35:51;;;;;;;;;;;;;;;20.26;71.84;99577.13;5053818;28;19917;-80
2022/08/14 04:43:47;;;;;;;;;;;;;;;20.34;70.04;99598.28;5055341;28;19987;-80
2022/08/14 04:46:14;;;;;;;;;;;;;;;20.37;69.97;99588.94;5054377;28;20368;-81
2022/08/14 04:48:39;;;;;;;;;;;;;;;20.43;67.64;99592.03;5070654;28;19960;-80
2022/08/14 04:51:06;;;;;;;;;;;;;;;20.66;67.40;99591.81;5053147;28;19940;-80
2022/08/14 04:53:32;;;;;;;;;;;;;;;20.81;66.87;99592.19;5053866;28;19952;-80
2022/08/14 04:55:59;;;;;;;;;;;;;;;20.87;66.36;99598.88;5054508;28;19917;-80
2022/08/14 04:58:29;;;;;;;;;;;;;;;20.97;65.83;99601.88;5052870;28;19928;-80
2022/08/14 05:00:55;;;;;;;;;;;;;;;21.05;64.79;99597.59;5053486;28;20000;-80
2022/08/14 05:03:21;;;;;;;;;;;;;;;21.22;64.77;99601.94;5053712;28;20310;-80
2022/08/14 05:05:47;;;;;;;;;;;;;;;21.26;65.83;99611.13;5053113;28;19917;-80
2022/08/14 05:08:12;;;;;;;;;;;;;;;21.92;64.69;99620.00;5054119;28;19916;-80
2022/08/14 05:10:46;;;;;;;;;;;;;;;22.21;64.52;99623.53;5052887;28;19965;-80
2022/08/14 05:13:12;;;;;;;;;;;;;;;22.12;65.72;99619.81;5052703;28;19962;-80
2022/08/14 05:15:38;;;;;;;;;;;;;;;22.39;63.43;99620.09;5053245;28;20354;-80
2022/08/14 05:18:11;;;;;;;;;;;;;;;22.44;63.82;99616.66;5053474;28;19924;-80
2022/08/14 05:20:37;;;;;;;;;;;;;;;22.40;64.44;99621.66;5069331;28;19947;-80
2022/08/14 05:23:02;;;;;;;;;;;;;;;22.34;64.62;99612.16;5052771;28;19923;-80
2022/08/14 05:25:28;;;;;;;;;;;;;;;22.41;64.57;99617.56;5053303;28;20003;-80
2022/08/14 05:27:56;;;;;;;;;;;;;;;22.31;63.60;99613.06;5052874;28;20270;-80
2022/08/14 05:30:22;;;;;;;;;;;;;;;22.20;62.33;99618.31;5052668;28;19924;-80
2022/08/14 05:32:47;;;;;;;;;;;;;;;22.24;59.71;99613.31;5053005;28;19921;-80
2022/08/14 05:35:12;;;;;;;;;;;;;;;22.31;60.37;99620.78;5069617;28;19920;-80
2022/08/14 05:37:39;;;;;;;;;;;;;;;22.32;59.71;99628.84;5052592;28;20379;-80
2022/08/14 05:40:04;;;;;;;;;;;;;;;22.51;59.89;99617.66;5052608;28;19917;-80
2022/08/14 05:42:30;;;;;;;;;;;;;;;22.54;57.49;99623.22;5052515;28;19962;-80
2022/08/14 05:44:56;;;;;;;;;;;;;;;22.64;56.29;99635.44;5069463;28;20452;-80
2022/08/14 05:47:24;;;;;;;;;;;;;;;22.80;55.94;99625.94;5052782;28;20019;-76
2022/08/14 05:49:50;;;;;;;;;;;;;;;23.81;53.29;99629.47;5052482;28;19924;-80
2022/08/14 05:52:15;;;;;;;;;;;;;;;24.83;50.34;99629.25;5053029;28;19917;-80
2022/08/14 05:54:41;;;;;;;;;;;;;;;25.57;48.55;99625.06;5052599;28;19916;-80
2022/08/14 05:57:06;;;;;;;;;;;;;;;26.60;45.34;99624.88;5054419;28;19917;-80
2022/08/14 05:59:34;;;;;;;;;;;;;;;27.01;44.45;99622.34;5055167;28;19925;-81
2022/08/14 06:01:59;;;;;;;;;;;;;;;26.83;43.28;99631.03;5055410;28;19917;-80
2022/08/14 06:04:24;;;;;;;;;;;;;;;27.49;42.26;99630.78;5058744;28;19939;-81
2022/08/14 06:06:50;;;;;;;;;;;;;;;27.97;41.65;99636.25;5059623;28;19925;-80
2022/08/14 06:09:15;;;;;;;;;;;;;;;28.35;39.75;99648.81;5077398;28;19916;-81
2022/08/14 06:11:40;;;;;;;;;;;;;;;29.00;39.46;99643.69;5059558;28;19916;-81
2022/08/14 06:14:06;;;;;;;;;;;;;;;29.01;38.83;99638.72;5059879;28;19920;-80
2022/08/14 06:16:31;;;;;;;;;;;;;;;28.76;39.16;99645.94;5059437;28;20019;-81
2022/08/14 06:18:56;;;;;;;;;;;;;;;28.32;38.75;99644.03;5059409;28;19977;-81
2022/08/14 06:21:22;;;;;;;;;;;;;;;28.84;38.23;99644.25;5059529;28;19923;-80
2022/08/14 06:23:47;;;;;;;;;;;;;;;29.59;36.17;99646.13;5059268;28;19921;-80
2022/08/14 06:26:13;;;;;;;;;;;;;;;30.47;35.29;99652.28;5059298;28;19966;-80
2022/08/14 06:28:38;;;;;;;;;;;;;;;30.93;33.71;99654.84;5059371;28;19917;-80
2022/08/14 06:31:03;;;;;;;;;;;;;;;30.58;33.34;99660.94;5058997;28;19994;-80
2022/08/14 06:33:29;;;;;;;;;;;;;;;29.93;34.82;99650.03;5059752;28;19917;-80
2022/08/14 06:35:54;;;;;;;;;;;;;;;29.78;36.16;99645.78;5059122;28;20333;-80
2022/08/14 06:38:20;;;;;;;;;;;;;;;29.98;34.64;99640.69;5059018;28;19917;-80
2022/08/14 06:40:46;;;;;;;;;;;;;;;30.12;34.50;99650.47;5059001;28;19917;-80
2022/08/14 06:43:12;;;;;;;;;;;;;;;29.72;34.92;99655.13;5059003;28;20027;-80
2022/08/14 06:45:39;;;;;;;;;;;;;;;29.94;35.00;99653.72;5058935;28;19921;-80
2022/08/14 06:48:18;;;;;;;;;;;;;;;29.29;36.86;99654.13;5058937;28;19939;-80
2022/08/14 06:50:44;;;;;;;;;;;;;;;29.24;35.87;99649.13;5059425;28;19923;-80
2022/08/14 06:53:10;;;;;;;;;;;;;;;29.49;35.75;99645.47;5058771;28;19920;-80
2022/08/14 06:55:36;;;;;;;;;;;;;;;29.86;35.48;99646.88;5058813;28;19960;-80
2022/08/14 06:58:01;;;;;;;;;;;;;;;30.19;35.16;99652.88;5076595;28;19927;-80
2022/08/14 07:00:27;;;;;;;;;;;;;;;30.60;35.10;99660.41;5058695;28;19916;-79
2022/08/14 07:05:51;;;;;;;;;;;;;;;31.21;33.79;99662.75;5076793;28;19994;-80
2022/08/14 07:08:17;;;;;;;;;;;;;;;30.78;34.06;99657.13;5058564;28;20029;-80
2022/08/14 07:10:43;;;;;;;;;;;;;;;31.22;33.57;99662.25;5075169;28;19916;-79
2022/08/14 07:13:12;;;;;;;;;;;;;;;30.72;34.53;99665.72;5076753;28;19959;-79
2022/08/14 07:15:38;;;;;;;;;;;;;;;30.61;35.04;99665.63;5058352;28;19921;-79
2022/08/14 07:18:05;;;;;;;;;;;;;;;31.36;33.90;99671.19;5058195;28;19923;-79
2022/08/14 07:20:31;;;;;;;;;;;;;;;30.62;35.01;99669.28;5058799;28;19916;-79
2022/08/14 07:22:57;;;;;;;;;;;;;;;30.56;34.89;99663.53;5058307;28;20413;-80
2022/08/14 07:25:26;;;;;;;;;;;;;;;30.16;35.66;99665.38;5076805;28;20007;-79
2022/08/14 07:27:51;;;;;;;;;;;;;;;30.55;36.10;99679.19;5058881;28;19916;-79
2022/08/14 07:30:16;;;;;;;;;;;;;;;30.34;36.15;99677.75;5058138;28;20447;-79
2022/08/14 07:32:42;;;;;;;;;;;;;;;30.98;35.86;99677.06;5058400;28;19966;-79
2022/08/14 07:35:07;;;;;;;;;;;;;;;31.07;34.19;99678.91;5058058;28;20328;-80
2022/08/14 07:37:33;;;;;;;;;;;;;;;30.75;35.37;99687.66;5057982;28;19972;-79
2022/08/14 07:39:59;;;;;;;;;;;;;;;31.27;34.75;99686.59;5058562;28;19947;-80
2022/08/14 07:42:25;;;;;;;;;;;;;;;31.59;33.67;99678.56;5058086;28;20377;-80
2022/08/14 07:44:50;;;;;;;;;;;;;;;31.29;34.08;99683.97;5057711;28;20007;-80
2022/08/14 07:47:16;;;;;;;;;;;;;;;31.65;33.55;99676.47;5058027;28;19955;-80
2022/08/14 07:49:43;;;;;;;;;;;;;;;32.30;33.27;99681.16;5057987;28;19917;-80
2022/08/14 07:52:08;;;;;;;;;;;;;;;32.43;33.21;99681.41;5057687;28;19917;-80
2022/08/14 07:54:34;;;;;;;;;;;;;;;32.85;32.12;99676.56;5057940;28;19965;-80
2022/08/14 07:57:00;;;;;;;;;;;;;;;33.65;30.34;99686.41;5057313;28;19917;-80
2022/08/14 07:59:26;;;;;;;;;;;;;;;34.09;29.97;99688.16;5057618;28;19921;-80
2022/08/14 08:01:52;;;;;;;;;;;;;;;34.28;29.25;99686.16;5057436;28;19916;-80
2022/08/14 08:04:25;;;;;;;;;;;;;;;34.92;28.31;99686.50;5076028;28;19936;-80
2022/08/14 08:06:52;;;;;;;;;;;;;;;35.38;26.94;99684.59;5075962;28;19916;-80
2022/08/14 08:09:19;;;;;;;;;;;;;;;35.53;26.99;99689.13;5057402;28;19978;-80
2022/08/14 08:11:45;;;;;;;;;;;;;;;35.53;26.64;99692.03;5057562;28;19928;-80
2022/08/14 08:14:10;;;;;;;;;;;;;;;35.52;26.65;99681.81;5057765;28;19916;-80
2022/08/14 08:16:37;;;;;;;;;;;;;;;35.86;26.40;99694.41;5073777;28;20015;-80
2022/08/14 08:19:03;;;;;;;;;;;;;;;35.26;26.88;99693.97;5074949;28;19923;-80
2022/08/14 08:21:28;;;;;;;;;;;;;;;35.43;27.07;99692.44;5057559;28;20007;-80
2022/08/14 08:23:54;;;;;;;;;;;;;;;35.82;26.37;99693.94;5057477;28;20322;-80
2022/08/14 08:26:19;;;;;;;;;;;;;;;35.35;27.11;99687.81;5056502;28;20001;-80
2022/08/14 08:28:54;;;;;;;;;;;;;;;34.83;27.39;99686.88;5056745;28;19920;-80
2022/08/14 08:31:19;;;;;;;;;;;;;;;34.21;28.77;99683.88;5056916;28;19928;-80
2022/08/14 08:33:49;;;;;;;;;;;;;;;33.66;29.83;99682.97;5057405;28;19917;-80
2022/08/14 08:36:17;;;;;;;;;;;;;;;32.92;29.80;99669.50;5056869;28;20012;-80
2022/08/14 08:38:44;;;;;;;;;;;;;;;32.65;30.24;99674.81;5057189;28;20355;-80
2022/08/14 08:41:10;;;;;;;;;;;;;;;32.37;30.90;99671.22;5056612;28;19956;-80
2022/08/14 08:43:35;;;;;;;;;;;;;;;33.01;30.16;99666.31;5056575;28;19962;-80
2022/08/14 08:46:02;;;;;;;;;;;;;;;33.27;29.50;99666.69;5056802;28;20411;-80
2022/08/14 08:48:42;;;;;;;;;;;;;;;32.10;30.51;99664.97;5056234;28;19917;-79
2022/08/14 08:51:09;;;;;;;;;;;;;;;31.26;32.14;99662.00;5056555;28;19966;-80
2022/08/14 08:53:35;;;;;;;;;;;;;;;31.56;31.48;99653.72;5056249;28;19954;-80
2022/08/14 08:56:01;;;;;;;;;;;;;;;30.35;33.36;99647.75;5056239;28;20009;-80
2022/08/14 08:58:27;;;;;;;;;;;;;;;30.61;33.58;99659.09;5052032;28;19921;-80
2022/08/14 09:00:53;;;;;;;;;;;;;;;30.44;32.76;99656.16;5052987;28;19999;-80
2022/08/14 09:03:21;;;;;;;;;;;;;;;30.39;33.17;99654.81;5052776;28;19924;-80
2022/08/14 09:05:50;;;;;;;;;;;;;;;30.07;33.54;99651.19;5053681;28;19986;-79
2022/08/14 09:08:20;;;;;;;;;;;;;;;30.26;32.74;99640.16;5070054;28;19921;-80
2022/08/14 09:10:46;;;;;;;;;;;;;;;30.71;32.87;99649.78;5052807;28;19971;-80
2022/08/14 09:13:13;;;;;;;;;;;;;;;30.94;32.25;99644.13;5054104;28;19996;-80
2022/08/14 09:15:39;;;;;;;;;;;;;;;30.35;32.95;99644.88;5052896;28;19929;-80
2022/08/14 09:18:06;;;;;;;;;;;;;;;30.40;33.12;99638.38;5053954;28;20276;-80
2022/08/14 09:20:31;;;;;;;;;;;;;;;29.47;33.50;99635.81;5052500;28;19917;-80
2022/08/14 09:22:57;;;;;;;;;;;;;;;30.11;31.89;99636.63;5053020;28;19924;-80
2022/08/14 09:25:23;;;;;;;;;;;;;;;31.21;31.13;99637.66;5052367;28;20318;-80
2022/08/14 09:27:48;;;;;;;;;;;;;;;31.50;30.21;99635.66;5052284;28;19942;-80
2022/08/14 09:30:14;;;;;;;;;;;;;;;31.44;30.43;99627.03;5052695;28;19916;-80
2022/08/14 09:32:58;;;;;;;;;;;;;;;30.61;32.58;99631.19;5052695;28;19932;-80
2022/08/14 09:35:29;;;;;;;;;;;;;;;30.19;32.93;99629.91;5069197;28;20376;-80
2022/08/14 09:38:17;;;;;;;;;;;;;;;30.84;32.09;99631.31;5051626;28;19924;-80
2022/08/14 09:40:59;;;;;;;;;;;;;;;31.25;31.07;99632.50;5033459;28;19917;-80
2022/08/14 09:43:43;;;;;;;;;;;;;;;31.49;30.82;99629.16;5069096;28;19961;-80
2022/08/14 09:46:09;;;;;;;;;;;;;;;31.67;30.12;99624.19;5068967;28;20011;-80
2022/08/14 09:48:36;;;;;;;;;;;;;;;30.94;31.78;99630.56;5068947;28;20020;-80
2022/08/14 09:51:06;;;;;;;;;;;;;;;30.36;32.11;99629.22;5052692;28;19917;-81
2022/08/14 09:53:40;;;;;;;;;;;;;;;29.44;34.32;99628.22;5052611;28;20331;-81
2022/08/14 09:56:06;;;;;;;;;;;;;;;29.88;33.16;99621.31;5053591;28;19916;-81
2022/08/14 09:58:37;;;;;;;;;;;;;;;30.31;32.90;99618.50;5052383;28;20024;-80
2022/08/14 10:01:08;;;;;;;;;;;;;;;30.32;32.85;99620.09;5051986;28;19916;-81
2022/08/14 10:03:35;;;;;;;;;;;;;;;30.41;31.89;99617.00;5052014;28;19916;-80
2022/08/14 10:06:04;;;;;;;;;;;;;;;30.80;32.67;99614.34;5053178;28;20333;-80
2022/08/14 10:08:38;;;;;;;;;;;;;;;30.44;32.68;99621.72;5052661;28;19956;-81
2022/08/14 10:11:13;;;;;;;;;;;;;;;31.22;32.41;99619.16;5053982;28;19924;-81
2022/08/14 10:13:41;;;;;;;;;;;;;;;31.26;31.75;99618.91;5054146;28;19993;-81
2022/08/14 10:16:07;;;;;;;;;;;;;;;31.00;32.47;99610.47;5052463;28;19924;-81
2022/08/14 10:18:32;;;;;;;;;;;;;;;30.34;33.12;99614.63;5053462;28;20288;-81
2022/08/14 10:20:59;;;;;;;;;;;;;;;29.87;34.03;99614.03;5052408;28;19965;-81
2022/08/14 10:23:26;;;;;;;;;;;;;;;29.90;34.04;99607.28;5052010;28;19932;-82
2022/08/14 10:25:56;;;;;;;;;;;;;;;30.79;32.52;99618.50;5052263;28;19916;-81
2022/08/14 10:28:22;;;;;;;;;;;;;;;31.25;31.93;99605.81;5053653;28;19952;-81
2022/08/14 10:30:52;;;;;;;;;;;;;;;31.23;32.00;99611.31;5052122;28;20343;-81
2022/08/14 10:33:24;;;;;;;;;;;;;;;32.40;30.80;99603.97;5052069;28;19967;-80
2022/08/14 10:35:49;;;;;;;;;;;;;;;33.10;29.22;99605.50;5068692;28;19921;-81
2022/08/14 10:38:25;;;;;;;;;;;;;;;33.95;26.73;99605.69;5052106;28;19977;-81
2022/08/14 10:40:51;;;;;;;;;;;;;;;34.28;26.90;99613.19;5051838;28;19931;-81
2022/08/14 10:43:17;;;;;;;;;;;;;;;33.96;24.59;99610.13;5053118;28;19917;-81
2022/08/14 10:45:52;;;;;;;;;;;;;;;32.60;25.81;99606.53;5051878;28;19917;-81
2022/08/14 10:48:18;;;;;;;;;;;;;;;32.23;25.88;99604.78;5053304;28;19928;-81
2022/08/14 10:50:50;;;;;;;;;;;;;;;32.66;25.96;99607.28;5054983;28;19921;-80
2022/08/14 10:53:26;;;;;;;;;;;;;;;32.67;26.11;99605.19;5056847;28;19940;-81
2022/08/14 10:55:56;;;;;;;;;;;;;;;32.91;27.67;99598.78;5055998;28;19917;-81
2022/08/14 10:58:26;;;;;;;;;;;;;;;31.80;30.68;99601.41;5055257;28;19921;-81
2022/08/14 11:00:56;;;;;;;;;;;;;;;31.22;30.45;99598.25;5055659;28;19923;-81
2022/08/14 11:03:24;;;;;;;;;;;;;;;31.56;29.97;99607.72;5055432;28;19916;-80
2022/08/14 11:05:50;;;;;;;;;;;;;;;32.24;28.72;99594.84;5056960;28;19971;-81
2022/08/14 11:08:18;;;;;;;;;;;;;;;32.00;29.66;99591.75;5055275;28;19917;-81
2022/08/14 11:10:54;;;;;;;;;;;;;;;31.92;29.25;99593.59;5071806;28;19920;-81
2022/08/14 11:13:29;;;;;;;;;;;;;;;32.38;30.05;99601.63;5055759;28;19917;-81
2022/08/14 11:15:59;;;;;;;;;;;;;;;32.28;28.89;99592.47;5055810;28;19917;-81
2022/08/14 11:18:25;;;;;;;;;;;;;;;32.85;26.15;99596.69;5055171;28;19917;-81
2022/08/14 11:20:55;;;;;;;;;;;;;;;33.04;26.68;99593.22;5055398;28;19916;-80
2022/08/14 11:23:25;;;;;;;;;;;;;;;33.86;28.03;99596.00;5054989;28;19952;-81
2022/08/14 11:25:50;;;;;;;;;;;;;;;33.81;29.20;99601.84;5055236;28;20395;-81
2022/08/14 11:28:21;;;;;;;;;;;;;;;34.08;29.46;99591.34;5055015;28;19921;-80
2022/08/14 11:30:47;;;;;;;;;;;;;;;34.39;29.17;99584.97;5056799;28;19924;-80
2022/08/14 11:33:13;;;;;;;;;;;;;;;33.80;28.63;99592.41;5056169;28;19916;-81
2022/08/14 11:35:40;;;;;;;;;;;;;;;33.19;30.22;99587.13;5056054;28;19923;-80
2022/08/14 11:38:06;;;;;;;;;;;;;;;33.18;29.86;99594.94;5055728;28;20319;-80
2022/08/14 11:40:37;;;;;;;;;;;;;;;33.33;29.42;99594.59;5055279;28;19998;-81
2022/08/14 11:43:04;;;;;;;;;;;;;;;33.91;28.61;99587.84;5055257;28;19964;-80
2022/08/14 11:45:33;;;;;;;;;;;;;;;34.43;28.50;99583.91;5056547;28;20277;-80
2022/08/14 11:48:14;;;;;;;;;;;;;;;34.15;29.21;99587.88;5054454;28;19931;-80
2022/08/14 11:50:39;;;;;;;;;;;;;;;34.61;27.52;99588.94;5054466;28;19964;-81
2022/08/14 11:53:18;;;;;;;;;;;;;;;34.20;29.04;99578.38;5054492;28;19928;-80
2022/08/14 11:55:44;;;;;;;;;;;;;;;33.70;30.05;99573.88;5054472;28;19924;-80
2022/08/14 11:58:10;;;;;;;;;;;;;;;33.56;30.74;99580.84;5054370;28;19921;-81
2022/08/14 12:00:49;;;;;;;;;;;;;;;33.04;31.60;99578.81;5053787;28;20268;-80
2022/08/14 12:03:14;;;;;;;;;;;;;;;32.64;31.96;99581.09;5054289;28;20004;-81
2022/08/14 12:05:41;;;;;;;;;;;;;;;32.16;33.03;99575.75;5054173;28;19963;-81
2022/08/14 12:08:07;;;;;;;;;;;;;;;32.26;33.56;99579.91;5070613;28;19946;-80
2022/08/14 12:10:35;;;;;;;;;;;;;;;31.86;33.90;99575.56;5054085;28;19960;-80
2022/08/14 12:13:11;;;;;;;;;;;;;;;32.28;33.31;99580.97;5053841;28;19917;-80
2022/08/14 12:15:36;;;;;;;;;;;;;;;31.95;33.40;99578.16;5055319;28;19924;-80
2022/08/14 12:18:03;;;;;;;;;;;;;;;32.04;34.04;99575.78;5053797;28;19917;-80
2022/08/14 12:20:35;;;;;;;;;;;;;;;31.38;35.39;99568.78;5054993;28;20335;-80
2022/08/14 12:23:02;;;;;;;;;;;;;;;31.76;35.13;99578.69;5071048;28;19967;-80
2022/08/14 12:25:28;;;;;;;;;;;;;;;31.88;34.72;99579.47;5054319;28;19916;-80
2022/08/14 12:27:54;;;;;;;;;;;;;;;31.71;34.76;99570.84;5054016;28;20269;-80
2022/08/14 12:30:25;;;;;;;;;;;;;;;32.52;33.57;99570.94;5053878;28;19917;-80
2022/08/14 12:32:51;;;;;;;;;;;;;;;32.56;34.17;99568.59;5071195;28;19917;-80
2022/08/14 12:35:16;;;;;;;;;;;;;;;32.27;33.62;99567.88;5054008;28;20261;-80
2022/08/14 12:37:48;;;;;;;;;;;;;;;32.25;33.65;99573.38;5053718;28;20248;-80
2022/08/14 12:40:14;;;;;;;;;;;;;;;32.40;32.99;99566.56;5054197;28;19916;-80
2022/08/14 12:42:41;;;;;;;;;;;;;;;32.29;33.53;99570.22;5053616;28;20011;-80
2022/08/14 12:45:10;;;;;;;;;;;;;;;31.57;35.42;99563.28;5055119;28;19927;-80
2022/08/14 12:47:36;;;;;;;;;;;;;;;31.58;34.86;99561.97;5055282;28;19979;-80
2022/08/14 12:50:02;;;;;;;;;;;;;;;31.21;36.25;99562.97;5053590;28;19963;-80
2022/08/14 12:52:34;;;;;;;;;;;;;;;31.56;35.90;99547.34;5053867;28;19921;-80
2022/08/14 12:55:00;;;;;;;;;;;;;;;31.54;35.88;99558.59;5069931;28;19916;-80
2022/08/14 12:57:36;;;;;;;;;;;;;;;31.72;35.88;99566.66;5053081;28;19927;-80
2022/08/14 13:00:06;;;;;;;;;;;;;;;31.63;36.91;99558.28;5053275;28;19924;-80